Soddy Daisy, Tennessee
Current Conditions -  °F | °C
As of 2:53 PM on Saturday 20 Dec 2014 (Local Time) from KCHA Reporting Station
Broken Clouds Broken Clouds  
Wind Chill: 48°   Ceiling: 2800
Heat Index: 48°   Visibility: 10mi
Dew Point: 32°   Wind: 3mph
Humidity: 54%   Direction: 50°NE
Pressure: 30.19"   Gusts: NA
Location:  35.24°N, 85.19°W
Report Text: KCHA 201953Z 05003KT 10SM BKN028 BKN045 09/00 A3019 RMK AO2 SLP222 T00890000
Loading
Personal Weather Stations






























Interactive Weather Map New forecast layout! Learn more

10-Day Weather Forecast

Advertisements
Track Severe Weather on mobile